sensor_id;sensor_type;location;lat;lon;timestamp;P1;P2;P0
77515;PMS5003;66627;29.424;-98.496;2023-02-04T00:01:54;24;21;
77515;PMS5003;66627;29.424;-98.496;2023-02-04T00:04:20;18;18;
77515;PMS5003;66627;29.424;-98.496;2023-02-04T00:06:45;19;19;
77515;PMS5003;66627;29.424;-98.496;2023-02-04T00:09:11;16;16;
77515;PMS5003;66627;29.424;-98.496;2023-02-04T00:11:37;19;16;
77515;PMS5003;66627;29.424;-98.496;2023-02-04T00:14:02;20;19;
77515;PMS5003;66627;29.424;-98.496;2023-02-04T00:16:27;21;18;
77515;PMS5003;66627;29.424;-98.496;2023-02-04T00:18:52;18;18;
77515;PMS5003;66627;29.424;-98.496;2023-02-04T00:21:18;20;17;
77515;PMS5003;66627;29.424;-98.496;2023-02-04T00:23:44;17;17;
77515;PMS5003;66627;29.424;-98.496;2023-02-04T00:26:08;18;18;
77515;PMS5003;66627;29.424;-98.496;2023-02-04T00:28:35;17;15;
77515;PMS5003;66627;29.424;-98.496;2023-02-04T00:31:00;18;16;
77515;PMS5003;66627;29.424;-98.496;2023-02-04T00:33:25;17;17;
77515;PMS5003;66627;29.424;-98.496;2023-02-04T00:35:51;18;16;
77515;PMS5003;66627;29.424;-98.496;2023-02-04T00:38:16;22;19;
77515;PMS5003;66627;29.424;-98.496;2023-02-04T00:40:42;18;17;
77515;PMS5003;66627;29.424;-98.496;2023-02-04T00:43:07;23;22;
77515;PMS5003;66627;29.424;-98.496;2023-02-04T00:45:32;18;17;
77515;PMS5003;66627;29.424;-98.496;2023-02-04T00:47:58;18;17;
77515;PMS5003;66627;29.424;-98.496;2023-02-04T00:50:23;19;19;
77515;PMS5003;66627;29.424;-98.496;2023-02-04T00:52:49;21;17;
77515;PMS5003;66627;29.424;-98.496;2023-02-04T00:55:15;19;17;
77515;PMS5003;66627;29.424;-98.496;2023-02-04T00:57:40;18;17;
77515;PMS5003;66627;29.424;-98.496;2023-02-04T01:00:06;21;19;
77515;PMS5003;66627;29.424;-98.496;2023-02-04T01:02:31;21;20;
77515;PMS5003;66627;29.424;-98.496;2023-02-04T01:04:57;16;16;
77515;PMS5003;66627;29.424;-98.496;2023-02-04T01:07:22;17;16;
77515;PMS5003;66627;29.424;-98.496;2023-02-04T01:09:47;19;19;
77515;PMS5003;66627;29.424;-98.496;2023-02-04T01:12:12;17;17;
77515;PMS5003;66627;29.424;-98.496;2023-02-04T01:14:38;22;19;
77515;PMS5003;66627;29.424;-98.496;2023-02-04T01:17:03;19;18;
77515;PMS5003;66627;29.424;-98.496;2023-02-04T01:19:29;23;20;
77515;PMS5003;66627;29.424;-98.496;2023-02-04T01:21:54;19;17;
77515;PMS5003;66627;29.424;-98.496;2023-02-04T01:24:20;20;19;
77515;PMS5003;66627;29.424;-98.496;2023-02-04T01:26:45;23;23;
77515;PMS5003;66627;29.424;-98.496;2023-02-04T01:29:11;23;23;
77515;PMS5003;66627;29.424;-98.496;2023-02-04T01:31:37;20;20;
77515;PMS5003;66627;29.424;-98.496;2023-02-04T01:34:03;21;21;
77515;PMS5003;66627;29.424;-98.496;2023-02-04T01:36:28;26;24;
77515;PMS5003;66627;29.424;-98.496;2023-02-04T01:38:54;24;24;
77515;PMS5003;66627;29.424;-98.496;2023-02-04T01:41:19;25;23;
77515;PMS5003;66627;29.424;-98.496;2023-02-04T01:43:44;21;20;
77515;PMS5003;66627;29.424;-98.496;2023-02-04T01:46:10;21;19;
77515;PMS5003;66627;29.424;-98.496;2023-02-04T01:48:35;22;22;
77515;PMS5003;66627;29.424;-98.496;2023-02-04T01:51:02;33;27;
77515;PMS5003;66627;29.424;-98.496;2023-02-04T01:53:27;24;21;
77515;PMS5003;66627;29.424;-98.496;2023-02-04T01:55:52;23;23;
77515;PMS5003;66627;29.424;-98.496;2023-02-04T01:58:17;26;23;
77515;PMS5003;66627;29.424;-98.496;2023-02-04T02:00:43;25;22;
77515;PMS5003;66627;29.424;-98.496;2023-02-04T02:03:08;24;24;
77515;PMS5003;66627;29.424;-98.496;2023-02-04T02:05:35;29;29;
77515;PMS5003;66627;29.424;-98.496;2023-02-04T02:07:59;25;24;
77515;PMS5003;66627;29.424;-98.496;2023-02-04T02:10:24;30;27;
77515;PMS5003;66627;29.424;-98.496;2023-02-04T02:12:50;24;22;
77515;PMS5003;66627;29.424;-98.496;2023-02-04T02:15:16;26;26;
77515;PMS5003;66627;29.424;-98.496;2023-02-04T02:17:41;26;24;
77515;PMS5003;66627;29.424;-98.496;2023-02-04T02:20:07;30;28;
77515;PMS5003;66627;29.424;-98.496;2023-02-04T02:22:34;26;25;
77515;PMS5003;66627;29.424;-98.496;2023-02-04T02:24:57;25;24;
77515;PMS5003;66627;29.424;-98.496;2023-02-04T02:27:23;30;25;
77515;PMS5003;66627;29.424;-98.496;2023-02-04T02:29:48;27;25;
77515;PMS5003;66627;29.424;-98.496;2023-02-04T02:32:13;23;22;
77515;PMS5003;66627;29.424;-98.496;2023-02-04T02:34:38;30;28;
77515;PMS5003;66627;29.424;-98.496;2023-02-04T02:37:04;31;29;
77515;PMS5003;66627;29.424;-98.496;2023-02-04T02:39:30;26;24;
77515;PMS5003;66627;29.424;-98.496;2023-02-04T02:41:55;38;33;
77515;PMS5003;66627;29.424;-98.496;2023-02-04T02:44:21;35;29;
77515;PMS5003;66627;29.424;-98.496;2023-02-04T02:46:46;30;28;
77515;PMS5003;66627;29.424;-98.496;2023-02-04T02:49:12;29;28;
77515;PMS5003;66627;29.424;-98.496;2023-02-04T02:51:37;37;32;
77515;PMS5003;66627;29.424;-98.496;2023-02-04T02:54:03;33;30;
77515;PMS5003;66627;29.424;-98.496;2023-02-04T02:56:28;29;29;
77515;PMS5003;66627;29.424;-98.496;2023-02-04T02:58:54;32;29;
77515;PMS5003;66627;29.424;-98.496;2023-02-04T03:01:20;33;29;
77515;PMS5003;66627;29.424;-98.496;2023-02-04T03:03:45;29;29;
77515;PMS5003;66627;29.424;-98.496;2023-02-04T03:06:10;30;29;
77515;PMS5003;66627;29.424;-98.496;2023-02-04T03:08:35;37;31;
77515;PMS5003;66627;29.424;-98.496;2023-02-04T03:11:00;30;29;
77515;PMS5003;66627;29.424;-98.496;2023-02-04T03:13:26;30;27;
77515;PMS5003;66627;29.424;-98.496;2023-02-04T03:15:53;29;28;
77515;PMS5003;66627;29.424;-98.496;2023-02-04T03:18:18;24;23;
77515;PMS5003;66627;29.424;-98.496;2023-02-04T03:20:43;35;34;
77515;PMS5003;66627;29.424;-98.496;2023-02-04T03:23:08;30;27;
77515;PMS5003;66627;29.424;-98.496;2023-02-04T03:25:34;27;27;
77515;PMS5003;66627;29.424;-98.496;2023-02-04T03:27:59;31;30;
77515;PMS5003;66627;29.424;-98.496;2023-02-04T03:30:25;27;26;
77515;PMS5003;66627;29.424;-98.496;2023-02-04T03:32:50;26;26;
77515;PMS5003;66627;29.424;-98.496;2023-02-04T03:35:16;32;32;
77515;PMS5003;66627;29.424;-98.496;2023-02-04T03:37:40;29;27;
77515;PMS5003;66627;29.424;-98.496;2023-02-04T03:40:06;38;35;
77515;PMS5003;66627;29.424;-98.496;2023-02-04T03:42:31;32;30;
77515;PMS5003;66627;29.424;-98.496;2023-02-04T03:44:57;28;24;
77515;PMS5003;66627;29.424;-98.496;2023-02-04T03:47:22;29;28;
77515;PMS5003;66627;29.424;-98.496;2023-02-04T03:49:48;31;29;
77515;PMS5003;66627;29.424;-98.496;2023-02-04T03:52:14;38;35;
77515;PMS5003;66627;29.424;-98.496;2023-02-04T03:54:39;29;29;
77515;PMS5003;66627;29.424;-98.496;2023-02-04T03:57:04;37;32;
77515;PMS5003;66627;29.424;-98.496;2023-02-04T03:59:30;31;30;
77515;PMS5003;66627;29.424;-98.496;2023-02-04T04:01:56;30;28;
77515;PMS5003;66627;29.424;-98.496;2023-02-04T04:04:21;30;30;
77515;PMS5003;66627;29.424;-98.496;2023-02-04T04:06:46;34;31;
77515;PMS5003;66627;29.424;-98.496;2023-02-04T04:09:12;36;31;
77515;PMS5003;66627;29.424;-98.496;2023-02-04T04:11:38;34;29;
77515;PMS5003;66627;29.424;-98.496;2023-02-04T04:14:03;42;39;
77515;PMS5003;66627;29.424;-98.496;2023-02-04T04:16:28;36;32;
77515;PMS5003;66627;29.424;-98.496;2023-02-04T04:18:54;38;36;
77515;PMS5003;66627;29.424;-98.496;2023-02-04T04:21:19;36;35;
77515;PMS5003;66627;29.424;-98.496;2023-02-04T04:23:44;32;31;
77515;PMS5003;66627;29.424;-98.496;2023-02-04T04:26:10;36;32;
77515;PMS5003;66627;29.424;-98.496;2023-02-04T04:28:36;50;46;
77515;PMS5003;66627;29.424;-98.496;2023-02-04T04:31:01;50;47;
77515;PMS5003;66627;29.424;-98.496;2023-02-04T04:33:27;41;41;
77515;PMS5003;66627;29.424;-98.496;2023-02-04T04:35:53;37;37;
77515;PMS5003;66627;29.424;-98.496;2023-02-04T04:38:18;31;31;
77515;PMS5003;66627;29.424;-98.496;2023-02-04T04:40:44;34;32;
77515;PMS5003;66627;29.424;-98.496;2023-02-04T04:43:09;36;33;
77515;PMS5003;66627;29.424;-98.496;2023-02-04T04:45:34;33;32;
77515;PMS5003;66627;29.424;-98.496;2023-02-04T04:48:00;33;33;
77515;PMS5003;66627;29.424;-98.496;2023-02-04T04:50:25;40;37;
77515;PMS5003;66627;29.424;-98.496;2023-02-04T04:52:50;43;40;
77515;PMS5003;66627;29.424;-98.496;2023-02-04T04:55:15;47;44;
77515;PMS5003;66627;29.424;-98.496;2023-02-04T04:57:41;41;39;
77515;PMS5003;66627;29.424;-98.496;2023-02-04T05:00:06;40;35;
77515;PMS5003;66627;29.424;-98.496;2023-02-04T05:02:31;51;48;
77515;PMS5003;66627;29.424;-98.496;2023-02-04T05:04:57;50;46;
77515;PMS5003;66627;29.424;-98.496;2023-02-04T05:07:22;42;39;
77515;PMS5003;66627;29.424;-98.496;2023-02-04T05:09:48;48;40;
77515;PMS5003;66627;29.424;-98.496;2023-02-04T05:12:14;46;45;
77515;PMS5003;66627;29.424;-98.496;2023-02-04T05:14:39;37;34;
77515;PMS5003;66627;29.424;-98.496;2023-02-04T05:17:05;31;30;
77515;PMS5003;66627;29.424;-98.496;2023-02-04T05:19:30;39;35;
77515;PMS5003;66627;29.424;-98.496;2023-02-04T05:21:56;31;31;
77515;PMS5003;66627;29.424;-98.496;2023-02-04T05:24:26;39;37;
77515;PMS5003;66627;29.424;-98.496;2023-02-04T05:26:47;41;39;
77515;PMS5003;66627;29.424;-98.496;2023-02-04T05:29:12;35;35;
77515;PMS5003;66627;29.424;-98.496;2023-02-04T05:31:38;34;31;
77515;PMS5003;66627;29.424;-98.496;2023-02-04T05:34:03;37;35;
77515;PMS5003;66627;29.424;-98.496;2023-02-04T05:36:28;43;36;
77515;PMS5003;66627;29.424;-98.496;2023-02-04T05:38:54;38;37;
77515;PMS5003;66627;29.424;-98.496;2023-02-04T05:41:19;33;33;
77515;PMS5003;66627;29.424;-98.496;2023-02-04T05:43:44;42;40;
77515;PMS5003;66627;29.424;-98.496;2023-02-04T05:46:10;43;43;
77515;PMS5003;66627;29.424;-98.496;2023-02-04T05:48:36;38;36;
77515;PMS5003;66627;29.424;-98.496;2023-02-04T05:51:00;43;40;
77515;PMS5003;66627;29.424;-98.496;2023-02-04T05:53:26;42;41;
77515;PMS5003;66627;29.424;-98.496;2023-02-04T05:55:52;42;38;
77515;PMS5003;66627;29.424;-98.496;2023-02-04T05:58:17;37;34;
77515;PMS5003;66627;29.424;-98.496;2023-02-04T06:00:43;40;38;
77515;PMS5003;66627;29.424;-98.496;2023-02-04T06:03:08;41;38;
77515;PMS5003;66627;29.424;-98.496;2023-02-04T06:05:33;42;39;
77515;PMS5003;66627;29.424;-98.496;2023-02-04T06:07:58;40;38;
77515;PMS5003;66627;29.424;-98.496;2023-02-04T06:10:24;32;32;
77515;PMS5003;66627;29.424;-98.496;2023-02-04T06:12:49;40;36;
77515;PMS5003;66627;29.424;-98.496;2023-02-04T06:15:15;39;34;
77515;PMS5003;66627;29.424;-98.496;2023-02-04T06:17:40;42;39;
77515;PMS5003;66627;29.424;-98.496;2023-02-04T06:20:06;45;42;
77515;PMS5003;66627;29.424;-98.496;2023-02-04T06:22:31;46;43;
77515;PMS5003;66627;29.424;-98.496;2023-02-04T06:24:56;51;45;
77515;PMS5003;66627;29.424;-98.496;2023-02-04T06:27:21;37;35;
77515;PMS5003;66627;29.424;-98.496;2023-02-04T06:29:47;43;42;
77515;PMS5003;66627;29.424;-98.496;2023-02-04T06:32:12;49;44;
77515;PMS5003;66627;29.424;-98.496;2023-02-04T06:34:38;47;44;
77515;PMS5003;66627;29.424;-98.496;2023-02-04T06:37:03;44;44;
77515;PMS5003;66627;29.424;-98.496;2023-02-04T06:39:29;45;40;
77515;PMS5003;66627;29.424;-98.496;2023-02-04T06:41:54;45;42;
77515;PMS5003;66627;29.424;-98.496;2023-02-04T06:44:19;47;47;
77515;PMS5003;66627;29.424;-98.496;2023-02-04T06:46:44;42;41;
77515;PMS5003;66627;29.424;-98.496;2023-02-04T06:49:10;48;45;
77515;PMS5003;66627;29.424;-98.496;2023-02-04T06:51:35;51;49;
77515;PMS5003;66627;29.424;-98.496;2023-02-04T06:54:01;51;48;
77515;PMS5003;66627;29.424;-98.496;2023-02-04T06:56:26;52;49;
77515;PMS5003;66627;29.424;-98.496;2023-02-04T06:58:52;52;49;
77515;PMS5003;66627;29.424;-98.496;2023-02-04T07:01:17;54;53;
77515;PMS5003;66627;29.424;-98.496;2023-02-04T07:03:42;55;51;
77515;PMS5003;66627;29.424;-98.496;2023-02-04T07:06:08;47;43;
77515;PMS5003;66627;29.424;-98.496;2023-02-04T07:08:33;51;48;
77515;PMS5003;66627;29.424;-98.496;2023-02-04T07:10:59;41;38;
77515;PMS5003;66627;29.424;-98.496;2023-02-04T07:13:24;51;48;
77515;PMS5003;66627;29.424;-98.496;2023-02-04T07:15:50;39;39;
77515;PMS5003;66627;29.424;-98.496;2023-02-04T07:18:15;47;45;
77515;PMS5003;66627;29.424;-98.496;2023-02-04T07:20:41;47;44;
77515;PMS5003;66627;29.424;-98.496;2023-02-04T07:23:06;44;43;
77515;PMS5003;66627;29.424;-98.496;2023-02-04T07:25:32;46;42;
77515;PMS5003;66627;29.424;-98.496;2023-02-04T07:27:57;51;47;
77515;PMS5003;66627;29.424;-98.496;2023-02-04T07:30:23;37;37;
77515;PMS5003;66627;29.424;-98.496;2023-02-04T07:32:48;45;41;
77515;PMS5003;66627;29.424;-98.496;2023-02-04T07:35:14;41;39;
77515;PMS5003;66627;29.424;-98.496;2023-02-04T07:37:38;48;44;
77515;PMS5003;66627;29.424;-98.496;2023-02-04T07:40:04;42;39;
77515;PMS5003;66627;29.424;-98.496;2023-02-04T07:42:29;43;40;
77515;PMS5003;66627;29.424;-98.496;2023-02-04T07:44:54;47;43;
77515;PMS5003;66627;29.424;-98.496;2023-02-04T07:47:20;38;37;
77515;PMS5003;66627;29.424;-98.496;2023-02-04T07:49:45;41;35;
77515;PMS5003;66627;29.424;-98.496;2023-02-04T07:52:10;40;34;
77515;PMS5003;66627;29.424;-98.496;2023-02-04T07:54:36;40;39;
77515;PMS5003;66627;29.424;-98.496;2023-02-04T07:57:01;37;36;
77515;PMS5003;66627;29.424;-98.496;2023-02-04T07:59:26;38;37;
77515;PMS5003;66627;29.424;-98.496;2023-02-04T08:01:52;43;39;
77515;PMS5003;66627;29.424;-98.496;2023-02-04T08:04:17;34;33;
77515;PMS5003;66627;29.424;-98.496;2023-02-04T08:06:42;44;41;
77515;PMS5003;66627;29.424;-98.496;2023-02-04T08:09:07;40;40;
77515;PMS5003;66627;29.424;-98.496;2023-02-04T08:11:33;44;40;
77515;PMS5003;66627;29.424;-98.496;2023-02-04T08:13:58;47;43;
77515;PMS5003;66627;29.424;-98.496;2023-02-04T08:16:24;40;37;
77515;PMS5003;66627;29.424;-98.496;2023-02-04T08:18:49;40;40;
77515;PMS5003;66627;29.424;-98.496;2023-02-04T08:21:15;42;41;
77515;PMS5003;66627;29.424;-98.496;2023-02-04T08:23:40;41;39;
77515;PMS5003;66627;29.424;-98.496;2023-02-04T08:26:05;40;37;
77515;PMS5003;66627;29.424;-98.496;2023-02-04T08:28:31;33;32;
77515;PMS5003;66627;29.424;-98.496;2023-02-04T08:30:56;39;38;
77515;PMS5003;66627;29.424;-98.496;2023-02-04T08:33:22;39;38;
77515;PMS5003;66627;29.424;-98.496;2023-02-04T08:35:47;40;39;
77515;PMS5003;66627;29.424;-98.496;2023-02-04T08:38:12;37;34;
77515;PMS5003;66627;29.424;-98.496;2023-02-04T08:40:37;39;36;
77515;PMS5003;66627;29.424;-98.496;2023-02-04T08:43:03;57;47;
77515;PMS5003;66627;29.424;-98.496;2023-02-04T08:45:29;42;41;
77515;PMS5003;66627;29.424;-98.496;2023-02-04T08:47:55;45;44;
77515;PMS5003;66627;29.424;-98.496;2023-02-04T08:50:20;42;39;
77515;PMS5003;66627;29.424;-98.496;2023-02-04T08:52:46;39;38;
77515;PMS5003;66627;29.424;-98.496;2023-02-04T08:55:11;53;45;
77515;PMS5003;66627;29.424;-98.496;2023-02-04T08:57:37;48;43;
77515;PMS5003;66627;29.424;-98.496;2023-02-04T09:00:02;54;48;
77515;PMS5003;66627;29.424;-98.496;2023-02-04T09:02:27;44;41;
77515;PMS5003;66627;29.424;-98.496;2023-02-04T09:04:53;54;47;
77515;PMS5003;66627;29.424;-98.496;2023-02-04T09:07:18;53;51;
77515;PMS5003;66627;29.424;-98.496;2023-02-04T09:09:43;60;55;
77515;PMS5003;66627;29.424;-98.496;2023-02-04T09:12:09;58;52;
77515;PMS5003;66627;29.424;-98.496;2023-02-04T09:14:34;53;49;
77515;PMS5003;66627;29.424;-98.496;2023-02-04T09:17:00;50;42;
77515;PMS5003;66627;29.424;-98.496;2023-02-04T09:19:24;50;46;
77515;PMS5003;66627;29.424;-98.496;2023-02-04T09:21:50;46;43;
77515;PMS5003;66627;29.424;-98.496;2023-02-04T09:24:16;41;38;
77515;PMS5003;66627;29.424;-98.496;2023-02-04T09:26:41;46;42;
77515;PMS5003;66627;29.424;-98.496;2023-02-04T09:29:07;50;45;
77515;PMS5003;66627;29.424;-98.496;2023-02-04T09:31:32;46;44;
77515;PMS5003;66627;29.424;-98.496;2023-02-04T09:33:57;49;46;
77515;PMS5003;66627;29.424;-98.496;2023-02-04T09:36:23;46;42;
77515;PMS5003;66627;29.424;-98.496;2023-02-04T09:38:48;46;39;
77515;PMS5003;66627;29.424;-98.496;2023-02-04T09:41:14;45;40;
77515;PMS5003;66627;29.424;-98.496;2023-02-04T09:43:40;40;40;
77515;PMS5003;66627;29.424;-98.496;2023-02-04T09:46:06;100;92;
77515;PMS5003;66627;29.424;-98.496;2023-02-04T09:48:30;93;84;
77515;PMS5003;66627;29.424;-98.496;2023-02-04T09:50:59;74;68;
77515;PMS5003;66627;29.424;-98.496;2023-02-04T09:53:22;87;82;
77515;PMS5003;66627;29.424;-98.496;2023-02-04T09:55:48;98;90;
77515;PMS5003;66627;29.424;-98.496;2023-02-04T09:58:13;97;89;
77515;PMS5003;66627;29.424;-98.496;2023-02-04T10:00:37;75;64;
77515;PMS5003;66627;29.424;-98.496;2023-02-04T10:03:08;62;58;
77515;PMS5003;66627;29.424;-98.496;2023-02-04T10:05:30;61;57;
77515;PMS5003;66627;29.424;-98.496;2023-02-04T10:07:54;42;38;
77515;PMS5003;66627;29.424;-98.496;2023-02-04T10:10:20;34;33;
77515;PMS5003;66627;29.424;-98.496;2023-02-04T10:12:45;40;38;
77515;PMS5003;66627;29.424;-98.496;2023-02-04T10:15:11;54;48;
77515;PMS5003;66627;29.424;-98.496;2023-02-04T10:17:36;52;42;
77515;PMS5003;66627;29.424;-98.496;2023-02-04T10:20:01;47;42;
77515;PMS5003;66627;29.424;-98.496;2023-02-04T10:22:27;47;41;
77515;PMS5003;66627;29.424;-98.496;2023-02-04T10:24:53;51;46;
77515;PMS5003;66627;29.424;-98.496;2023-02-04T10:27:18;45;36;
77515;PMS5003;66627;29.424;-98.496;2023-02-04T10:34:36;42;38;
77515;PMS5003;66627;29.424;-98.496;2023-02-04T10:37:10;46;42;
77515;PMS5003;66627;29.424;-98.496;2023-02-04T10:39:26;45;45;
77515;PMS5003;66627;29.424;-98.496;2023-02-04T10:41:52;41;37;
77515;PMS5003;66627;29.424;-98.496;2023-02-04T10:44:17;39;37;
77515;PMS5003;66627;29.424;-98.496;2023-02-04T10:46:42;46;42;
77515;PMS5003;66627;29.424;-98.496;2023-02-04T10:51:32;45;38;
77515;PMS5003;66627;29.424;-98.496;2023-02-04T10:53:58;49;43;
77515;PMS5003;66627;29.424;-98.496;2023-02-04T10:56:24;57;47;
77515;PMS5003;66627;29.424;-98.496;2023-02-04T10:58:49;41;41;
77515;PMS5003;66627;29.424;-98.496;2023-02-04T11:01:15;50;42;
77515;PMS5003;66627;29.424;-98.496;2023-02-04T11:03:40;46;41;
77515;PMS5003;66627;29.424;-98.496;2023-02-04T11:06:08;50;46;
77515;PMS5003;66627;29.424;-98.496;2023-02-04T11:08:31;67;55;
77515;PMS5003;66627;29.424;-98.496;2023-02-04T11:10:57;72;64;
77515;PMS5003;66627;29.424;-98.496;2023-02-04T11:13:22;63;55;
77515;PMS5003;66627;29.424;-98.496;2023-02-04T11:15:47;57;48;
77515;PMS5003;66627;29.424;-98.496;2023-02-04T11:18:24;46;43;
77515;PMS5003;66627;29.424;-98.496;2023-02-04T11:20:38;46;43;
77515;PMS5003;66627;29.424;-98.496;2023-02-04T11:25:30;45;43;
77515;PMS5003;66627;29.424;-98.496;2023-02-04T11:27:54;47;40;
77515;PMS5003;66627;29.424;-98.496;2023-02-04T11:30:21;44;38;
77515;PMS5003;66627;29.424;-98.496;2023-02-04T11:37:37;41;38;
77515;PMS5003;66627;29.424;-98.496;2023-02-04T11:42:30;43;37;
77515;PMS5003;66627;29.424;-98.496;2023-02-04T11:44:53;42;38;
77515;PMS5003;66627;29.424;-98.496;2023-02-04T11:47:18;49;46;
77515;PMS5003;66627;29.424;-98.496;2023-02-04T11:49:44;59;51;
77515;PMS5003;66627;29.424;-98.496;2023-02-04T11:52:12;44;42;
77515;PMS5003;66627;29.424;-98.496;2023-02-04T11:54:35;53;47;
77515;PMS5003;66627;29.424;-98.496;2023-02-04T11:57:00;57;52;
77515;PMS5003;66627;29.424;-98.496;2023-02-04T11:59:25;52;49;
77515;PMS5003;66627;29.424;-98.496;2023-02-04T12:01:50;61;51;
77515;PMS5003;66627;29.424;-98.496;2023-02-04T12:04:21;66;53;
77515;PMS5003;66627;29.424;-98.496;2023-02-04T12:06:41;55;48;
77515;PMS5003;66627;29.424;-98.496;2023-02-04T12:09:05;51;47;
77515;PMS5003;66627;29.424;-98.496;2023-02-04T12:11:31;50;46;
77515;PMS5003;66627;29.424;-98.496;2023-02-04T12:13:57;52;43;
77515;PMS5003;66627;29.424;-98.496;2023-02-04T12:16:21;43;39;
77515;PMS5003;66627;29.424;-98.496;2023-02-04T12:18:47;42;39;
77515;PMS5003;66627;29.424;-98.496;2023-02-04T12:21:12;41;35;
77515;PMS5003;66627;29.424;-98.496;2023-02-04T12:23:37;43;42;
77515;PMS5003;66627;29.424;-98.496;2023-02-04T12:26:03;45;42;
77515;PMS5003;66627;29.424;-98.496;2023-02-04T12:28:28;40;37;
77515;PMS5003;66627;29.424;-98.496;2023-02-04T12:30:54;44;38;
77515;PMS5003;66627;29.424;-98.496;2023-02-04T12:33:19;43;41;
77515;PMS5003;66627;29.424;-98.496;2023-02-04T12:35:44;49;45;
77515;PMS5003;66627;29.424;-98.496;2023-02-04T12:38:10;41;36;
77515;PMS5003;66627;29.424;-98.496;2023-02-04T12:40:35;48;42;
77515;PMS5003;66627;29.424;-98.496;2023-02-04T12:43:00;49;41;
77515;PMS5003;66627;29.424;-98.496;2023-02-04T12:45:25;41;38;
77515;PMS5003;66627;29.424;-98.496;2023-02-04T12:47:51;50;43;
77515;PMS5003;66627;29.424;-98.496;2023-02-04T12:50:17;41;37;
77515;PMS5003;66627;29.424;-98.496;2023-02-04T12:52:42;38;38;
77515;PMS5003;66627;29.424;-98.496;2023-02-04T12:55:07;48;40;
77515;PMS5003;66627;29.424;-98.496;2023-02-04T12:57:33;66;62;
77515;PMS5003;66627;29.424;-98.496;2023-02-04T12:59:57;66;54;
77515;PMS5003;66627;29.424;-98.496;2023-02-04T13:02:23;64;60;
77515;PMS5003;66627;29.424;-98.496;2023-02-04T13:04:48;59;47;
77515;PMS5003;66627;29.424;-98.496;2023-02-04T13:07:13;57;49;
77515;PMS5003;66627;29.424;-98.496;2023-02-04T13:09:38;52;45;
77515;PMS5003;66627;29.424;-98.496;2023-02-04T13:12:04;47;45;
77515;PMS5003;66627;29.424;-98.496;2023-02-04T13:14:29;59;44;
77515;PMS5003;66627;29.424;-98.496;2023-02-04T13:16:54;47;42;
77515;PMS5003;66627;29.424;-98.496;2023-02-04T13:19:19;54;48;
77515;PMS5003;66627;29.424;-98.496;2023-02-04T13:21:45;53;46;
77515;PMS5003;66627;29.424;-98.496;2023-02-04T13:24:10;57;52;
77515;PMS5003;66627;29.424;-98.496;2023-02-04T13:26:36;50;41;
77515;PMS5003;66627;29.424;-98.496;2023-02-04T13:29:01;50;42;
77515;PMS5003;66627;29.424;-98.496;2023-02-04T13:31:27;49;45;
77515;PMS5003;66627;29.424;-98.496;2023-02-04T13:33:52;47;42;
77515;PMS5003;66627;29.424;-98.496;2023-02-04T13:36:17;40;36;
77515;PMS5003;66627;29.424;-98.496;2023-02-04T13:38:43;51;42;
77515;PMS5003;66627;29.424;-98.496;2023-02-04T13:41:08;46;43;
77515;PMS5003;66627;29.424;-98.496;2023-02-04T13:43:33;56;53;
77515;PMS5003;66627;29.424;-98.496;2023-02-04T13:45:59;49;43;
77515;PMS5003;66627;29.424;-98.496;2023-02-04T13:48:24;44;37;
77515;PMS5003;66627;29.424;-98.496;2023-02-04T13:50:49;46;43;
77515;PMS5003;66627;29.424;-98.496;2023-02-04T13:53:14;41;39;
77515;PMS5003;66627;29.424;-98.496;2023-02-04T13:55:40;50;43;
77515;PMS5003;66627;29.424;-98.496;2023-02-04T13:58:06;51;42;
77515;PMS5003;66627;29.424;-98.496;2023-02-04T14:00:31;48;44;
77515;PMS5003;66627;29.424;-98.496;2023-02-04T14:02:57;58;46;
77515;PMS5003;66627;29.424;-98.496;2023-02-04T14:05:22;46;38;
77515;PMS5003;66627;29.424;-98.496;2023-02-04T14:07:47;43;38;
77515;PMS5003;66627;29.424;-98.496;2023-02-04T14:10:13;40;37;
77515;PMS5003;66627;29.424;-98.496;2023-02-04T14:12:38;36;32;
77515;PMS5003;66627;29.424;-98.496;2023-02-04T14:15:04;42;37;
77515;PMS5003;66627;29.424;-98.496;2023-02-04T14:17:29;46;38;
77515;PMS5003;66627;29.424;-98.496;2023-02-04T14:19:54;32;30;
77515;PMS5003;66627;29.424;-98.496;2023-02-04T14:22:20;43;37;
77515;PMS5003;66627;29.424;-98.496;2023-02-04T14:24:45;40;33;
77515;PMS5003;66627;29.424;-98.496;2023-02-04T14:27:10;39;33;
77515;PMS5003;66627;29.424;-98.496;2023-02-04T14:29:36;41;35;
77515;PMS5003;66627;29.424;-98.496;2023-02-04T14:32:01;31;29;
77515;PMS5003;66627;29.424;-98.496;2023-02-04T14:34:26;29;29;
77515;PMS5003;66627;29.424;-98.496;2023-02-04T14:36:52;33;30;
77515;PMS5003;66627;29.424;-98.496;2023-02-04T14:39:17;35;31;
77515;PMS5003;66627;29.424;-98.496;2023-02-04T14:41:42;37;32;
77515;PMS5003;66627;29.424;-98.496;2023-02-04T14:44:08;29;26;
77515;PMS5003;66627;29.424;-98.496;2023-02-04T14:46:34;27;26;
77515;PMS5003;66627;29.424;-98.496;2023-02-04T14:48:59;30;23;
77515;PMS5003;66627;29.424;-98.496;2023-02-04T14:51:24;31;28;
77515;PMS5003;66627;29.424;-98.496;2023-02-04T14:53:50;27;22;
77515;PMS5003;66627;29.424;-98.496;2023-02-04T14:56:14;29;26;
77515;PMS5003;66627;29.424;-98.496;2023-02-04T14:58:40;25;23;
77515;PMS5003;66627;29.424;-98.496;2023-02-04T15:01:05;29;29;
77515;PMS5003;66627;29.424;-98.496;2023-02-04T15:03:30;33;30;
77515;PMS5003;66627;29.424;-98.496;2023-02-04T15:05:56;32;30;
77515;PMS5003;66627;29.424;-98.496;2023-02-04T15:08:22;37;34;
77515;PMS5003;66627;29.424;-98.496;2023-02-04T15:10:47;30;26;
77515;PMS5003;66627;29.424;-98.496;2023-02-04T15:13:13;36;31;
77515;PMS5003;66627;29.424;-98.496;2023-02-04T15:15:39;36;32;
77515;PMS5003;66627;29.424;-98.496;2023-02-04T15:18:05;34;32;
77515;PMS5003;66627;29.424;-98.496;2023-02-04T15:20:29;34;31;
77515;PMS5003;66627;29.424;-98.496;2023-02-04T15:22:55;42;33;
77515;PMS5003;66627;29.424;-98.496;2023-02-04T15:25:21;41;33;
77515;PMS5003;66627;29.424;-98.496;2023-02-04T15:27:45;34;32;
77515;PMS5003;66627;29.424;-98.496;2023-02-04T15:30:11;33;30;
77515;PMS5003;66627;29.424;-98.496;2023-02-04T15:32:37;33;27;
77515;PMS5003;66627;29.424;-98.496;2023-02-04T15:35:02;32;28;
77515;PMS5003;66627;29.424;-98.496;2023-02-04T15:37:28;28;24;
77515;PMS5003;66627;29.424;-98.496;2023-02-04T15:39:54;41;35;
77515;PMS5003;66627;29.424;-98.496;2023-02-04T15:42:19;33;27;
77515;PMS5003;66627;29.424;-98.496;2023-02-04T15:44:44;32;32;
77515;PMS5003;66627;29.424;-98.496;2023-02-04T15:47:09;31;28;
77515;PMS5003;66627;29.424;-98.496;2023-02-04T15:49:34;38;35;
77515;PMS5003;66627;29.424;-98.496;2023-02-04T15:52:00;38;31;